Latest Weather Observations for Gosford

IDN60801

Issued at 5:35 pm EST Friday 25 April 2014 (issued every 30 minutes, with the page automatically refreshed every 10 minutes)

About weather observations | Map of weather stations | Latest weather observations for NSW | Other Formats
Station Details ID: 061425 Name: GOSFORD AWS Lat: -33.44 Lon: 151.36 Height: 7.0 m
Data from the previous 72 hours. | See also: Recent months for locations in New South Wales
Date/Time
EST
Temp
°C
App
Temp
°C
Dew
Point
Rel
Hum
%
Delta-T
°C
Wind Press
QNH
hPa
Press
MSL
hPa
Rain
since 9 am
mm
Dir
 
Spd
km/h
Gust
km/h
Spd
kts
Gust
kts
25/05:30pm 16.5 18.1 15.0 91 0.9 N 0 4 0 2 - - 32.6
25/05:00pm 17.7 18.6 15.1 85 1.5 NE 4 6 2 3 - - 32.6
25/04:30pm 20.1 21.0 15.1 73 2.9 NE 4 7 2 4 - - 32.6
25/04:00pm 20.5 21.2 14.6 69 3.4 NNE 4 6 2 3 - - 32.6
25/03:30pm 21.5 22.2 14.6 65 4.0 NNW 4 6 2 3 - - 32.6
25/03:00pm 20.9 21.8 15.2 70 3.4 N 4 9 2 5 - - 32.6
25/02:30pm 20.4 21.8 15.4 73 3.0 S 2 6 1 3 - - 32.4
25/02:00pm 19.0 19.8 14.7 76 2.5 NNW 4 9 2 5 - - 32.4
25/01:30pm 18.8 19.1 14.9 78 2.3 N 7 9 4 5 - - 32.4
25/01:00pm 19.4 20.1 14.4 73 2.9 NNW 4 9 2 5 - - 32.4
25/12:30pm 18.1 19.7 15.9 87 1.3 ENE 2 7 1 4 - - 32.4
25/12:00pm 17.0 18.6 16.0 94 0.6 N 2 4 1 2 - - 32.4
25/11:30am 16.3 17.6 16.1 99 0.1 NNE 4 6 2 3 - - 32.4
25/11:00am 15.8 16.6 15.8 100 0.0 SE 6 9 3 5 - - 32.4
25/10:30am 15.5 16.2 15.5 100 0.0 E 6 9 3 5 - - 32.4
25/10:00am 15.7 16.4 15.7 100 0.0 ENE 6 9 3 5 - - 32.4
25/09:30am 16.2 16.5 16.0 99 0.1 NE 9 13 5 7 - - 32.2
25/09:18am 16.4 12.9 15.4 94 0.6 E 28 39 15 21 - - 29.2
25/09:00am 17.5 18.6 17.0 97 0.3 WNW 7 15 4 8 - - 12.2
25/08:30am 17.5 19.5 17.0 97 0.3 NNE 2 7 1 4 - - 11.2
25/08:00am 17.5 18.8 17.2 98 0.2 NNW 6 9 3 5 - - 11.2
25/07:30am 17.7 19.7 16.9 95 0.5 N 2 6 1 3 - - 11.0
25/07:00am 17.9 19.5 16.8 93 0.7 SSE 4 13 2 7 - - 10.4
25/06:30am 17.8 17.7 17.0 95 0.5 NW 13 19 7 10 - - 9.0
25/06:00am 18.0 19.0 16.9 93 0.7 NW 7 9 4 5 - - 8.2
25/05:30am 17.9 18.8 16.6 92 0.8 NNE 7 9 4 5 - - 8.2
25/05:00am 18.0 17.6 16.2 89 1.1 ENE 13 22 7 12 - - 8.2
25/04:30am 19.3 19.4 16.5 84 1.7 E 11 20 6 11 - - 8.2
25/04:00am 19.2 19.5 17.0 87 1.3 SSE 11 20 6 11 - - 8.2
25/03:30am 19.6 20.0 17.2 86 1.5 SSE 11 24 6 13 - - 7.6
25/03:00am 19.9 20.5 16.9 83 1.8 SE 9 20 5 11 - - 7.6
25/02:30am 19.5 21.0 17.5 88 1.2 E 6 11 3 6 - - 7.6
25/02:00am 19.7 20.3 17.7 88 1.2 SE 11 20 6 11 - - 7.4
25/01:30am 20.7 21.7 17.7 83 1.8 S 9 17 5 9 - - 0.6
25/01:00am 21.2 22.0 17.2 78 2.4 SE 9 17 5 9 - - 0.0
25/12:30am 21.3 21.7 17.3 78 2.5 SE 11 22 6 12 - - 0.0
25/12:00am 21.4 20.8 17.6 79 2.3 SSE 17 28 9 15 - - 0.0
 
Date/Time
EST
Temp
°C
App
Temp
°C
Dew
Point
Rel
Hum
%
Delta-T
°C
Wind Press
QNH
hPa
Press
MSL
hPa
Rain
since 9 am
mm
Dir
 
Spd
km/h
Gust
km/h
Spd
kts
Gust
kts
24/11:30pm 21.6 21.8 17.6 78 2.5 SSE 13 24 7 13 - - 0.0
24/11:00pm 20.3 20.5 16.7 80 2.2 SSW 11 17 6 9 - - 0.0
24/10:30pm 15.7 16.6 13.9 89 1.0 SW 2 6 1 3 - - 0.0
24/10:00pm 15.7 16.8 13.5 87 1.2 CALM 0 0 0 0 - - 0.0
24/09:30pm 15.8 16.8 13.1 84 1.5 CALM 0 0 0 0 - - 0.0
24/09:00pm 16.4 17.4 13.3 82 1.7 CALM 0 0 0 0 - - 0.0
24/08:30pm 16.5 17.5 13.2 81 1.8 CALM 0 4 0 2 - - 0.0
24/08:00pm 17.4 18.4 13.1 76 2.4 CALM 0 4 0 2 - - 0.0
24/07:30pm 17.5 18.2 14.4 82 1.8 ENE 4 17 2 9 - - 0.0
24/07:00pm 18.1 19.1 13.2 73 2.8 CALM 0 0 0 0 - - 0.0
24/06:30pm 18.7 19.5 13.8 73 2.8 ESE 2 2 1 1 - - 0.0
24/06:00pm 21.1 20.6 12.5 58 4.9 N 7 9 4 5 - - 0.0
24/05:30pm 21.4 22.2 12.5 57 5.0 CALM 0 4 0 2 - - 0.0
24/05:00pm 23.2 23.0 11.9 49 6.4 NNW 4 6 2 3 - - 0.0
24/04:30pm 26.4 26.1 12.8 43 7.9 NW 6 9 3 5 - - 0.0
24/04:00pm 28.0 25.9 8.3 29 10.7 WNW 9 17 5 9 - - 0.0
24/03:30pm 28.1 27.2 10.8 34 9.8 NW 6 11 3 6 - - 0.0
24/03:00pm 28.8 26.9 10.5 32 10.4 NW 11 20 6 11 - - 0.0
24/02:30pm 29.1 27.4 9.8 30 10.8 NW 9 15 5 8 - - 0.0
24/02:00pm 29.2 28.2 10.3 31 10.7 NW 6 11 3 6 - - 0.0
24/01:30pm 28.2 26.0 9.5 31 10.4 NW 11 19 6 10 - - 0.0
24/01:00pm 28.3 25.8 9.6 31 10.4 WNW 13 20 7 11 - - 0.0
24/12:30pm 28.0 24.5 8.8 30 10.5 WNW 17 30 9 16 - - 0.0
24/12:00pm 27.6 24.9 10.3 34 9.7 WNW 15 24 8 13 - - 0.0
24/11:30am 27.1 23.5 9.9 34 9.6 WNW 19 30 10 16 - - 0.0
24/11:00am 26.8 24.7 9.6 34 9.5 WNW 11 22 6 12 - - 0.0
24/10:30am 25.9 25.2 11.3 40 8.3 NNE 6 11 3 6 - - 0.0
24/10:00am 24.9 25.3 12.5 46 7.1 NNE 2 7 1 4 - - 0.0
24/09:30am 21.7 22.3 13.1 58 4.9 SE 2 2 1 1 - - 0.0
24/09:00am 19.6 19.9 13.5 68 3.5 E 4 6 2 3 - - 0.0
24/08:30am 18.1 19.4 14.2 78 2.2 CALM 0 0 0 0 - - 0.0
24/08:00am 14.9 15.7 13.6 92 0.7 ENE 2 4 1 2 - - 0.0
24/07:30am 13.0 13.9 12.8 99 0.1 CALM 0 0 0 0 - - 0.0
24/07:00am 11.0 11.0 11.0 100 0.0 E 2 4 1 2 - - 0.0
24/06:30am 10.4 10.6 10.4 100 0.0 CALM 0 0 0 0 - - 0.0
24/06:00am 10.6 10.8 10.6 100 0.0 CALM 0 0 0 0 - - 0.0
24/05:30am 10.8 11.1 10.8 100 0.0 CALM 0 0 0 0 - - 0.0
24/05:00am 10.8 11.0 10.6 99 0.1 CALM 0 0 0 0 - - 0.0
24/04:30am 11.5 12.0 11.5 100 0.0 CALM 0 0 0 0 - - 0.0
24/04:00am 11.2 11.5 11.0 99 0.1 CALM 0 0 0 0 - - 0.0
24/03:30am 11.2 11.5 11.0 99 0.1 CALM 0 0 0 0 - - 0.0
24/03:00am 11.4 11.8 11.1 98 0.2 CALM 0 0 0 0 - - 0.0
24/02:30am 11.6 12.0 11.3 98 0.2 CALM 0 0 0 0 - - 0.0
24/02:00am 11.5 11.8 11.0 97 0.3 CALM 0 0 0 0 - - 0.0
24/01:30am 11.9 12.3 11.4 97 0.3 CALM 0 0 0 0 - - 0.0
24/01:00am 12.2 12.7 11.7 97 0.3 CALM 0 0 0 0 - - 0.0
24/12:30am 12.5 13.2 12.2 98 0.2 CALM 0 0 0 0 - - 0.0
24/12:00am 12.5 13.2 12.2 98 0.2 CALM 0 0 0 0 - - 0.0
 
Date/Time
EST
Temp
°C
App
Temp
°C
Dew
Point
Rel
Hum
%
Delta-T
°C
Wind Press
QNH
hPa
Press
MSL
hPa
Rain
since 9 am
mm
Dir
 
Spd
km/h
Gust
km/h
Spd
kts
Gust
kts
23/11:30pm 12.8 13.6 12.5 98 0.2 CALM 0 0 0 0 - - 0.0
23/11:00pm 12.4 13.0 11.8 96 0.3 CALM 0 4 0 2 - - 0.0
23/10:30pm 12.9 13.7 12.4 97 0.3 CALM 0 0 0 0 - - 0.0
23/10:00pm 13.1 13.9 12.5 96 0.3 CALM 0 2 0 1 - - 0.0
23/09:30pm 13.2 14.0 12.4 95 0.4 CALM 0 0 0 0 - - 0.0
23/09:00pm 13.8 14.7 13.0 95 0.4 CALM 0 0 0 0 - - 0.0
23/08:30pm 14.0 15.0 13.2 95 0.4 CALM 0 0 0 0 - - 0.0
23/08:00pm 14.4 15.1 13.3 93 0.6 NE 2 4 1 2 - - 0.0
23/07:30pm 14.8 15.8 13.2 90 0.9 CALM 0 0 0 0 - - 0.0
23/07:00pm 15.4 16.4 13.1 86 1.3 CALM 0 0 0 0 - - 0.0
23/06:30pm 16.7 17.5 13.6 82 1.7 ENE 2 4 1 2 - - 0.0
23/06:00pm 17.4 18.2 13.7 79 2.1 NNE 2 4 1 2 - - 0.0
23/05:30pm 18.9 19.3 13.7 72 3.0 N 4 6 2 3 - - 0.0
23/05:00pm 20.3 20.6 13.5 65 3.9 NE 4 6 2 3 - - 0.0
23/04:30pm 21.8 21.1 13.2 58 4.9 ENE 9 13 5 7 - - 0.0
23/04:00pm 23.1 22.4 13.3 54 5.7 E 9 13 5 7 - - 0.0
23/03:30pm 25.1 23.9 8.1 34 9.1 S 4 7 2 4 - - 0.0
23/03:00pm 24.6 23.5 8.5 36 8.6 SSW 4 7 2 4 - - 0.0
23/02:30pm 24.6 23.2 9.0 37 8.4 SSW 6 9 3 5 - - 0.0
23/02:00pm 24.5 23.1 8.9 37 8.4 SSW 6 9 3 5 - - 0.0
23/01:30pm 24.3 23.1 9.5 39 8.1 SSW 6 7 3 4 - - 0.0
23/01:00pm 24.3 23.2 8.3 36 8.5 S 4 6 2 3 - - 0.0
23/12:30pm 24.0 22.7 9.2 39 8.0 SSW 6 7 3 4 - - 0.0
23/12:00pm 23.5 22.0 8.4 38 8.0 S 6 9 3 5 - - 0.0
23/11:30am 23.6 22.0 8.1 37 8.2 SW 6 9 3 5 - - 0.0
23/11:00am 23.8 24.0 10.5 43 7.4 CALM 0 4 0 2 - - 0.0
23/10:30am 22.5 22.7 10.6 47 6.5 CALM 0 2 0 1 - - 0.0
23/10:00am 20.5 19.3 9.7 50 5.8 W 6 9 3 5 - - 0.0
23/09:30am 19.9 19.4 10.9 56 4.9 W 4 7 2 4 - - 0.0
23/09:00am 18.6 17.4 9.4 55 4.8 W 6 9 3 5 - - 0.0
23/08:30am 17.0 16.8 10.6 66 3.4 WSW 2 6 1 3 - - 0.0
23/08:00am 14.8 14.9 10.0 73 2.5 CALM 0 4 0 2 - - 0.0
23/07:30am 11.4 11.3 9.5 88 1.0 CALM 0 0 0 0 - - 0.0
23/07:00am 9.5 9.2 8.7 95 0.4 CALM 0 0 0 0 - - 0.0
23/06:30am 8.4 7.9 7.8 96 0.3 CALM 0 0 0 0 - - 0.0
23/06:00am 8.8 8.3 8.0 95 0.4 CALM 0 0 0 0 - - 0.0
23/05:30am 8.8 8.3 8.0 95 0.4 CALM 0 0 0 0 - - 0.0
23/05:00am 9.0 8.6 8.4 96 0.3 CALM 0 0 0 0 - - 0.0
23/04:30am 9.1 8.3 8.3 95 0.4 NW 2 4 1 2 - - 0.0
23/04:00am 9.6 9.3 8.8 95 0.4 CALM 0 0 0 0 - - 0.0
23/03:30am 9.9 9.6 8.7 92 0.6 CALM 0 0 0 0 - - 0.0
23/03:00am 10.4 10.2 9.0 91 0.7 CALM 0 4 0 2 - - 0.0
23/02:30am 10.0 9.8 8.9 93 0.5 CALM 0 0 0 0 - - 0.0
23/02:00am 10.9 10.7 9.2 89 0.8 CALM 0 0 0 0 - - 0.0
23/01:30am 11.2 11.1 9.5 89 0.9 CALM 0 0 0 0 - - 0.0
23/01:00am 11.7 11.6 9.4 86 1.2 CALM 0 0 0 0 - - 0.0
23/12:30am 12.1 12.2 10.0 87 1.1 CALM 0 0 0 0 - - 0.0
23/12:00am 12.5 12.6 10.0 85 1.3 CALM 0 0 0 0 - - 0.0
 
Date/Time
EST
Temp
°C
App
Temp
°C
Dew
Point
Rel
Hum
%
Delta-T
°C
Wind Press
QNH
hPa
Press
MSL
hPa
Rain
since 9 am
mm
Dir
 
Spd
km/h
Gust
km/h
Spd
kts
Gust
kts
22/11:30pm 12.6 13.0 11.2 91 0.7 CALM 0 0 0 0 - - 0.0
22/11:00pm 12.6 12.9 10.8 89 0.9 CALM 0 0 0 0 - - 0.0
22/10:30pm 13.1 13.4 11.0 87 1.1 CALM 0 0 0 0 - - 0.0
22/10:00pm 13.3 13.7 11.4 88 1.0 CALM 0 0 0 0 - - 0.0
22/09:30pm 13.4 13.5 11.5 88 1.0 E 2 4 1 2 - - 0.0
22/09:00pm 14.0 13.7 11.5 85 1.3 NNE 4 4 2 2 - - 0.0
22/08:30pm 13.8 14.3 11.7 87 1.1 CALM 0 4 0 2 - - 0.0
22/08:00pm 14.4 14.8 11.2 81 1.7 CALM 0 0 0 0 - - 0.0
22/07:30pm 14.6 15.0 11.4 81 1.7 CALM 0 0 0 0 - - 0.0
22/07:00pm 15.1 15.5 11.3 78 2.0 CALM 0 0 0 0 - - 0.0
22/06:30pm 16.1 16.5 11.3 73 2.6 CALM 0 0 0 0 - - 0.0
22/06:00pm 17.0 17.3 10.8 67 3.3 CALM 0 0 0 0 - - 0.0

Other Formats:

Comma delimited format used in spreadsheet applications
http://www.bom.gov.au/fwo/IDN60801/IDN60801.94782.axf

JavaScript Object Notation format (JSON) in row-major order
http://www.bom.gov.au/fwo/IDN60801/IDN60801.94782.json